Time;durP1;ratioP1;P1;durP2;ratioP2;P2;SDS_P1;SDS_P2;PMS_P1;PMS_P2;Temp;Humidity;BMP_temperature;BMP_pressure;BME280_temperature;BME280_humidity;BME280_pressure;Samples;Min_cycle;Max_cycle;Signal;HPM_P1;HPM_P2
2021/06/13 00:01:33;;;;;;;6.30;2.65;;;12.10;99.90;;;;;;6184921;23;20013;-70
2021/06/13 00:03:59;;;;;;;2.03;1.80;;;12.10;99.90;;;;;;6184700;23;20004;-70
2021/06/13 00:06:25;;;;;;;8.15;2.15;;;12.00;99.90;;;;;;6185291;23;20005;-71
2021/06/13 00:08:51;;;;;;;3.55;2.15;;;11.90;99.90;;;;;;6184751;23;20425;-71
2021/06/13 00:11:17;;;;;;;4.50;2.22;;;11.90;99.90;;;;;;6185085;23;20001;-70
2021/06/13 00:13:44;;;;;;;2.75;2.33;;;11.90;99.90;;;;;;6184717;23;20005;-70
2021/06/13 00:16:09;;;;;;;3.20;1.70;;;11.80;99.90;;;;;;6184847;23;20097;-70
2021/06/13 00:18:36;;;;;;;3.53;2.10;;;11.80;99.90;;;;;;6185087;23;20004;-71
2021/06/13 00:21:03;;;;;;;2.85;1.90;;;11.90;99.90;;;;;;6184540;23;20444;-70
2021/06/13 00:23:29;;;;;;;4.95;1.90;;;11.80;99.90;;;;;;6184716;23;20005;-70
2021/06/13 00:25:55;;;;;;;3.40;2.17;;;11.70;99.90;;;;;;6184399;23;20024;-70
2021/06/13 00:28:21;;;;;;;3.08;2.13;;;11.70;99.90;;;;;;6185041;23;20001;-71
2021/06/13 00:30:47;;;;;;;3.67;1.85;;;11.70;99.90;;;;;;6184523;23;20001;-70
2021/06/13 00:33:13;;;;;;;2.35;2.00;;;11.60;99.90;;;;;;6184699;23;20005;-70
2021/06/13 00:35:39;;;;;;;5.22;1.90;;;11.60;99.90;;;;;;6184597;23;20056;-70
2021/06/13 00:38:06;;;;;;;4.25;2.10;;;11.60;99.90;;;;;;6184934;23;20084;-70
2021/06/13 00:40:33;;;;;;;3.33;1.98;;;11.50;99.90;;;;;;6184478;23;20455;-70
2021/06/13 00:42:59;;;;;;;3.20;1.98;;;11.50;99.90;;;;;;6184618;23;20028;-70
2021/06/13 00:45:27;;;;;;;4.18;2.35;;;11.50;99.90;;;;;;6184127;23;20414;-70
2021/06/13 00:47:53;;;;;;;3.35;2.00;;;11.40;99.90;;;;;;6184622;23;20006;-71
2021/06/13 00:50:37;;;;;;;2.78;1.67;;;11.40;99.90;;;;;;6184649;23;19997;-70
2021/06/13 00:53:07;;;;;;;3.28;2.05;;;11.40;99.90;;;;;;6184320;23;20013;-70
2021/06/13 00:55:33;;;;;;;2.07;1.77;;;11.40;99.90;;;;;;6184706;23;20132;-70
2021/06/13 00:58:00;;;;;;;3.38;2.00;;;11.40;99.90;;;;;;6184103;23;20087;-70
2021/06/13 01:00:27;;;;;;;3.35;1.65;;;11.40;99.90;;;;;;6184575;23;20001;-70
2021/06/13 01:02:54;;;;;;;3.53;1.85;;;11.40;99.90;;;;;;6184505;23;20016;-70
2021/06/13 01:05:20;;;;;;;3.78;1.50;;;11.30;99.90;;;;;;6184580;23;20012;-70
2021/06/13 01:08:05;;;;;;;4.20;1.85;;;11.30;99.90;;;;;;6184536;23;20030;-70
2021/06/13 01:46:50;;;;;;;2.72;1.90;;;11.00;99.90;;;;;;6155057;23;20020;-71
2021/06/13 01:49:18;;;;;;;6.78;1.58;;;11.00;99.90;;;;;;6184093;23;20037;-71
2021/06/13 01:51:44;;;;;;;5.65;1.70;;;11.00;99.90;;;;;;6184006;23;20001;-71
2021/06/13 01:54:11;;;;;;;1.48;1.35;;;10.90;99.90;;;;;;6184040;23;20052;-71
2021/06/13 01:56:41;;;;;;;2.85;1.60;;;10.90;99.90;;;;;;6184046;23;20133;-71
2021/06/13 01:59:09;;;;;;;4.60;1.85;;;10.90;99.90;;;;;;6184099;23;20001;-71
2021/06/13 02:01:36;;;;;;;1.95;1.40;;;10.90;99.90;;;;;;6183949;23;20028;-71
2021/06/13 02:04:03;;;;;;;1.73;1.42;;;10.90;99.90;;;;;;6184229;23;20016;-71
2021/06/13 02:06:37;;;;;;;2.80;1.50;;;10.90;99.90;;;;;;6184199;23;20058;-71
2021/06/13 02:09:06;;;;;;;3.00;1.70;;;10.90;99.90;;;;;;6184283;23;20127;-71
2021/06/13 02:11:33;;;;;;;8.40;1.92;;;10.90;99.90;;;;;;6184010;23;20059;-71
2021/06/13 02:14:01;;;;;;;1.88;1.45;;;10.90;99.90;;;;;;6185300;23;19997;-71
2021/06/13 02:16:28;;;;;;;1.88;1.48;;;10.90;99.90;;;;;;6186179;23;20005;-71
2021/06/13 02:18:57;;;;;;;3.75;1.50;;;10.90;99.90;;;;;;6185942;23;20004;-71
2021/06/13 02:21:26;;;;;;;5.35;1.67;;;10.90;99.90;;;;;;6185507;23;20005;-71
2021/06/13 02:23:52;;;;;;;4.03;1.50;;;10.90;99.90;;;;;;6186295;23;20376;-71
2021/06/13 02:26:20;;;;;;;2.65;1.30;;;10.90;99.90;;;;;;6185664;23;20036;-71
2021/06/13 02:28:54;;;;;;;4.00;1.60;;;10.90;99.90;;;;;;6186051;23;20028;-71
2021/06/13 02:31:23;;;;;;;4.60;1.35;;;11.00;99.90;;;;;;6185849;23;20016;-71
2021/06/13 02:33:50;;;;;;;2.93;1.50;;;11.00;99.90;;;;;;6185975;23;20001;-71
2021/06/13 02:36:17;;;;;;;5.22;1.48;;;11.00;99.90;;;;;;6185568;23;20404;-71
2021/06/13 02:38:43;;;;;;;2.30;1.27;;;11.10;99.90;;;;;;6186135;23;20001;-71
2021/06/13 02:41:09;;;;;;;2.25;1.40;;;11.20;99.90;;;;;;6185372;23;20400;-71
2021/06/13 02:43:35;;;;;;;4.70;1.50;;;11.20;99.90;;;;;;6185796;23;20398;-71
2021/06/13 02:46:01;;;;;;;2.08;1.13;;;11.30;99.90;;;;;;6185411;23;20024;-70
2021/06/13 02:48:27;;;;;;;3.45;1.20;;;11.40;99.90;;;;;;6185626;23;20370;-71
2021/06/13 02:50:55;;;;;;;1.23;1.00;;;11.60;99.90;;;;;;6185897;23;20048;-71
2021/06/13 02:53:45;;;;;;;1.95;1.30;;;11.90;99.90;;;;;;6185548;23;20051;-71
2021/06/13 02:56:48;;;;;;;2.58;1.38;;;12.20;99.90;;;;;;6159068;23;20091;-71
2021/06/13 02:59:47;;;;;;;1.58;1.10;;;12.30;99.90;;;;;;6185767;23;20012;-71
2021/06/13 03:02:20;;;;;;;3.05;1.02;;;12.40;99.90;;;;;;6185376;23;20020;-71
2021/06/13 03:04:47;;;;;;;2.05;1.02;;;12.40;99.90;;;;;;6185959;23;20004;-71
2021/06/13 03:07:17;;;;;;;3.58;1.30;;;12.40;99.90;;;;;;6185261;23;20428;-71
2021/06/13 03:09:44;;;;;;;1.38;1.02;;;12.40;99.90;;;;;;6185475;23;20511;-71
2021/06/13 03:12:11;;;;;;;2.85;1.00;;;12.40;99.90;;;;;;6185394;23;20012;-71
2021/06/13 03:14:41;;;;;;;1.77;1.00;;;12.50;99.90;;;;;;6185377;23;20433;-71
2021/06/13 03:17:07;;;;;;;3.28;1.40;;;12.60;99.90;;;;;;6185087;23;20036;-71
2021/06/13 03:19:34;;;;;;;2.08;1.25;;;12.80;99.90;;;;;;6185500;23;20035;-71
2021/06/13 03:22:02;;;;;;;2.67;1.00;;;13.30;99.90;;;;;;6185490;23;20372;-71
2021/06/13 03:24:28;;;;;;;1.88;0.90;;;13.80;99.90;;;;;;6184855;23;20005;-71
2021/06/13 03:26:55;;;;;;;2.72;0.98;;;14.20;99.90;;;;;;6185496;23;20008;-71
2021/06/13 03:29:22;;;;;;;5.00;1.08;;;14.60;99.90;;;;;;6185430;23;20005;-71
2021/06/13 03:31:50;;;;;;;2.90;0.70;;;15.00;99.90;;;;;;6185289;23;20001;-71
2021/06/13 03:34:16;;;;;;;2.72;0.95;;;15.40;99.30;;;;;;6185387;23;20369;-71
2021/06/13 03:36:42;;;;;;;1.08;0.70;;;15.60;97.60;;;;;;6185154;23;20028;-71
2021/06/13 03:39:11;;;;;;;1.00;0.60;;;15.90;94.90;;;;;;6185429;23;20085;-71
2021/06/13 03:41:37;;;;;;;2.13;0.60;;;16.20;92.50;;;;;;6184997;23;19998;-71
2021/06/13 03:44:03;;;;;;;0.45;0.45;;;16.40;91.20;;;;;;6185385;23;20136;-71
2021/06/13 03:46:29;;;;;;;1.50;0.60;;;16.70;88.80;;;;;;6184656;23;20017;-71
2021/06/13 03:48:57;;;;;;;2.20;0.57;;;16.90;86.40;;;;;;6185304;23;20072;-71
2021/06/13 03:51:25;;;;;;;1.02;0.40;;;17.20;82.50;;;;;;6184890;23;20008;-71
2021/06/13 03:53:56;;;;;;;0.90;0.50;;;17.30;80.00;;;;;;6185516;23;20001;-71
2021/06/13 03:56:44;;;;;;;0.55;0.40;;;17.60;78.80;;;;;;6184715;23;20005;-71
2021/06/13 03:59:11;;;;;;;0.70;0.30;;;17.80;76.10;;;;;;6183899;23;20433;-71
2021/06/13 04:01:40;;;;;;;0.28;0.28;;;18.00;75.90;;;;;;6184774;23;20140;-71
2021/06/13 04:04:07;;;;;;;1.95;0.30;;;18.20;74.40;;;;;;6185301;23;20013;-71
2021/06/13 04:06:32;;;;;;;1.33;0.50;;;18.40;73.30;;;;;;6184729;23;19997;-71
2021/06/13 04:08:59;;;;;;;2.30;0.40;;;18.50;72.00;;;;;;6184926;23;20020;-71
2021/06/13 04:11:27;;;;;;;1.23;0.50;;;18.70;71.00;;;;;;6184884;23;20001;-72
2021/06/13 04:13:55;;;;;;;0.30;0.30;;;18.80;69.40;;;;;;6185256;23;20080;-71
2021/06/13 04:16:22;;;;;;;2.22;0.30;;;18.90;69.20;;;;;;6158226;23;20033;-71
2021/06/13 04:18:48;;;;;;;5.38;0.43;;;18.90;67.30;;;;;;6184968;23;20356;-71
2021/06/13 04:21:15;;;;;;;0.30;0.30;;;19.00;67.50;;;;;;6184478;23;20036;-72
2021/06/13 04:23:45;;;;;;;0.68;0.40;;;19.10;66.70;;;;;;6184885;23;20012;-71
2021/06/13 04:26:12;;;;;;;;;;;19.20;64.80;;;;;;6185296;23;20079;-71
2021/06/13 04:28:38;;;;;;;1.35;0.22;;;19.30;63.20;;;;;;6184869;23;19987;-71
2021/06/13 04:31:04;;;;;;;0.45;0.20;;;19.40;65.40;;;;;;6184699;23;20464;-71
2021/06/13 04:33:30;;;;;;;0.30;0.30;;;19.40;63.40;;;;;;6184662;23;20068;-71
2021/06/13 04:35:57;;;;;;;2.08;0.30;;;19.50;63.00;;;;;;6184455;23;20001;-71
2021/06/13 04:38:23;;;;;;;0.63;0.20;;;19.60;63.20;;;;;;6158153;23;20028;-71
2021/06/13 04:40:49;;;;;;;0.30;0.20;;;19.70;62.60;;;;;;6184634;23;20088;-71
2021/06/13 04:43:15;;;;;;;1.77;0.22;;;19.70;62.30;;;;;;6184418;23;20009;-72
2021/06/13 04:45:40;;;;;;;0.80;0.30;;;19.70;61.90;;;;;;6184175;23;20020;-71
2021/06/13 04:48:07;;;;;;;1.05;0.30;;;19.50;61.20;;;;;;6184738;23;20005;-71
2021/06/13 04:50:41;;;;;;;0.35;0.30;;;19.50;61.20;;;;;;6184661;23;19997;-71
2021/06/13 04:53:49;;;;;;;0.70;0.20;;;19.60;61.10;;;;;;6184436;23;20437;-71
2021/06/13 04:56:37;;;;;;;1.38;0.45;;;19.70;59.40;;;;;;6184255;23;20413;-71
2021/06/13 04:59:03;;;;;;;2.00;0.20;;;19.90;59.80;;;;;;6184379;23;20009;-71
2021/06/13 05:01:29;;;;;;;0.77;0.38;;;19.90;59.80;;;;;;6183960;23;20074;-71
2021/06/13 05:03:56;;;;;;;0.65;0.52;;;20.00;59.50;;;;;;6184453;23;20483;-71
2021/06/13 05:06:23;;;;;;;2.15;0.30;;;20.00;58.90;;;;;;6184780;23;20392;-71
2021/06/13 05:08:49;;;;;;;0.90;0.50;;;20.00;58.80;;;;;;6184492;23;20013;-71
2021/06/13 05:11:17;;;;;;;1.02;0.32;;;20.20;59.00;;;;;;6184168;23;20329;-71
2021/06/13 05:13:43;;;;;;;0.20;0.20;;;20.20;58.40;;;;;;6184409;23;20028;-71
2021/06/13 05:16:09;;;;;;;1.65;0.20;;;20.20;57.90;;;;;;6184506;23;20001;-71
2021/06/13 05:18:35;;;;;;;0.50;0.30;;;20.20;58.00;;;;;;6184132;23;20051;-71
2021/06/13 05:21:01;;;;;;;0.98;0.28;;;20.30;58.10;;;;;;6184036;23;20033;-71
2021/06/13 05:23:27;;;;;;;3.28;0.30;;;20.40;57.60;;;;;;6184105;23;20001;-71
2021/06/13 05:25:55;;;;;;;0.70;0.30;;;20.50;57.60;;;;;;6183985;23;20008;-71
2021/06/13 05:28:22;;;;;;;0.52;0.40;;;20.60;57.60;;;;;;6184179;23;20077;-71
2021/06/13 05:30:49;;;;;;;0.65;0.28;;;20.70;57.70;;;;;;6184573;23;20005;-71
2021/06/13 05:33:15;;;;;;;0.40;0.20;;;20.80;57.30;;;;;;6184005;23;20064;-71
2021/06/13 05:35:41;;;;;;;0.20;0.20;;;20.90;57.40;;;;;;6184503;23;20016;-71
2021/06/13 05:38:09;;;;;;;3.63;0.32;;;21.00;56.50;;;;;;6184043;23;20409;-71
2021/06/13 05:40:36;;;;;;;0.82;0.30;;;21.10;56.40;;;;;;6184111;23;20302;-71
2021/06/13 05:43:02;;;;;;;0.30;0.20;;;21.10;55.80;;;;;;6183967;23;20087;-71
2021/06/13 05:45:30;;;;;;;0.63;0.25;;;21.00;55.90;;;;;;6183674;23;20019;-71
2021/06/13 05:47:56;;;;;;;0.35;0.30;;;20.90;55.30;;;;;;6183636;23;20345;-71
2021/06/13 05:50:22;;;;;;;0.75;0.50;;;21.00;55.70;;;;;;6184059;23;20077;-71
2021/06/13 05:52:49;;;;;;;0.20;0.20;;;21.00;56.00;;;;;;6183999;23;20087;-71
2021/06/13 05:55:17;;;;;;;1.17;0.30;;;21.30;55.80;;;;;;6184408;23;20007;-71
2021/06/13 05:57:45;;;;;;;0.90;0.32;;;21.30;55.20;;;;;;6184108;23;20084;-71
2021/06/13 06:00:23;;;;;;;0.55;0.30;;;21.40;55.50;;;;;;6157911;23;20005;-71
2021/06/13 06:02:48;;;;;;;0.52;0.40;;;21.50;55.90;;;;;;6184320;23;20026;-71
2021/06/13 06:05:19;;;;;;;2.70;0.40;;;21.50;54.40;;;;;;6184178;23;20313;-71
2021/06/13 06:07:46;;;;;;;1.20;0.50;;;21.50;54.70;;;;;;6184094;23;20001;-71
2021/06/13 06:10:13;;;;;;;0.40;0.40;;;21.50;54.10;;;;;;6184110;23;20012;-71
2021/06/13 06:12:42;;;;;;;0.50;0.50;;;21.50;54.20;;;;;;6183971;23;20388;-71
2021/06/13 06:15:10;;;;;;;0.77;0.40;;;21.50;54.10;;;;;;6184305;23;20005;-71
2021/06/13 06:17:36;;;;;;;1.33;0.52;;;21.80;54.50;;;;;;6183607;23;20001;-71
2021/06/13 06:20:03;;;;;;;0.75;0.32;;;21.60;53.60;;;;;;6184267;23;20008;-71
2021/06/13 06:22:29;;;;;;;0.40;0.30;;;21.80;54.40;;;;;;6183479;23;20047;-71
2021/06/13 06:24:55;;;;;;;0.63;0.40;;;21.70;53.60;;;;;;6184126;23;20084;-71
2021/06/13 06:27:21;;;;;;;1.95;0.57;;;21.40;53.40;;;;;;6183769;23;20001;-71
2021/06/13 06:29:47;;;;;;;1.35;0.65;;;21.40;53.80;;;;;;6184344;23;20076;-71
2021/06/13 06:32:13;;;;;;;2.78;0.60;;;21.50;53.40;;;;;;6183794;23;20441;-71
2021/06/13 06:34:39;;;;;;;1.85;0.52;;;21.50;53.30;;;;;;6183730;23;20088;-71
2021/06/13 06:37:05;;;;;;;3.10;0.50;;;21.60;53.00;;;;;;6184130;23;20001;-71
2021/06/13 06:39:32;;;;;;;0.50;0.50;;;21.30;52.30;;;;;;6183857;23;20360;-71
2021/06/13 06:41:57;;;;;;;0.50;0.50;;;21.10;52.80;;;;;;6183702;23;20149;-71
2021/06/13 06:44:24;;;;;;;1.83;0.70;;;21.00;52.80;;;;;;6183997;23;20153;-71
2021/06/13 06:46:50;;;;;;;0.73;0.55;;;20.70;52.50;;;;;;6183674;23;20331;-71
2021/06/13 06:49:16;;;;;;;0.82;0.68;;;20.80;53.90;;;;;;6183678;23;19997;-71
2021/06/13 06:51:42;;;;;;;0.60;0.60;;;20.70;53.30;;;;;;6183820;23;20061;-71
2021/06/13 06:54:08;;;;;;;1.33;0.60;;;20.80;54.00;;;;;;6183819;23;20028;-71
2021/06/13 06:56:33;;;;;;;0.80;0.68;;;20.60;52.60;;;;;;6183691;23;20430;-71
2021/06/13 06:59:00;;;;;;;2.95;0.60;;;20.50;53.80;;;;;;6184344;23;20400;-71
2021/06/13 07:01:26;;;;;;;0.40;0.40;;;20.40;53.80;;;;;;6158963;23;20307;-71
2021/06/13 07:03:51;;;;;;;1.30;0.60;;;20.40;54.10;;;;;;6185665;23;20016;-71
2021/06/13 07:06:17;;;;;;;1.70;0.47;;;20.40;53.80;;;;;;6185293;23;20001;-71
2021/06/13 07:08:43;;;;;;;0.50;0.50;;;20.50;53.30;;;;;;6185514;23;20055;-71
2021/06/13 07:11:09;;;;;;;1.27;0.40;;;20.40;52.30;;;;;;6185575;23;20001;-71
2021/06/13 07:13:35;;;;;;;0.30;0.30;;;20.10;52.50;;;;;;6185519;23;20005;-71
2021/06/13 07:16:01;;;;;;;0.73;0.60;;;20.00;52.50;;;;;;6185307;23;20421;-71
2021/06/13 07:18:27;;;;;;;1.02;0.47;;;19.80;53.00;;;;;;6185272;23;20033;-71
2021/06/13 07:20:54;;;;;;;2.17;0.88;;;19.60;53.10;;;;;;6185790;23;19997;-71
2021/06/13 07:23:20;;;;;;;3.10;0.55;;;19.50;53.30;;;;;;6185152;23;20023;-75
2021/06/13 07:25:47;;;;;;;0.40;0.40;;;19.50;53.70;;;;;;6185526;23;20024;-72
2021/06/13 07:28:13;;;;;;;2.22;0.55;;;19.50;54.60;;;;;;6185436;23;20035;-72
2021/06/13 07:30:40;;;;;;;0.70;0.60;;;19.60;53.90;;;;;;6185282;23;20059;-72
2021/06/13 07:33:06;;;;;;;2.72;0.40;;;19.50;53.70;;;;;;6185408;23;20063;-72
2021/06/13 07:35:33;;;;;;;2.25;0.57;;;19.40;53.20;;;;;;6185023;23;20008;-72
2021/06/13 07:38:00;;;;;;;0.60;0.40;;;19.30;54.40;;;;;;6185205;23;20100;-72
2021/06/13 07:40:27;;;;;;;2.17;0.40;;;19.30;53.80;;;;;;6185035;23;20008;-72
2021/06/13 07:42:53;;;;;;;1.52;0.50;;;19.10;53.60;;;;;;6185184;23;20013;-72
2021/06/13 07:45:19;;;;;;;0.57;0.57;;;19.10;54.30;;;;;;6184745;23;20108;-72
2021/06/13 07:47:45;;;;;;;0.40;0.40;;;19.10;54.60;;;;;;6185232;23;20012;-72
2021/06/13 07:50:12;;;;;;;0.30;0.30;;;19.20;55.00;;;;;;6185136;23;20499;-72
2021/06/13 07:52:39;;;;;;;0.70;0.35;;;19.30;54.90;;;;;;6184935;23;20474;-70
2021/06/13 07:55:06;;;;;;;0.57;0.40;;;19.20;54.30;;;;;;6185033;23;20001;-70
2021/06/13 07:57:32;;;;;;;3.78;0.60;;;19.20;54.40;;;;;;6185129;23;20310;-70
2021/06/13 07:59:58;;;;;;;1.30;0.68;;;19.30;54.10;;;;;;6185143;23;20004;-70
2021/06/13 08:02:24;;;;;;;1.48;0.68;;;19.30;54.20;;;;;;6184930;23;20417;-70
2021/06/13 08:04:55;;;;;;;1.70;0.93;;;19.20;53.60;;;;;;6185226;23;20016;-70
2021/06/13 08:07:21;;;;;;;3.45;0.75;;;19.10;53.50;;;;;;6158338;23;20052;-70
2021/06/13 08:09:47;;;;;;;1.25;0.50;;;19.00;53.20;;;;;;6184870;23;20329;-70
2021/06/13 08:12:12;;;;;;;1.65;0.60;;;19.00;53.00;;;;;;6184574;23;20009;-72
2021/06/13 08:14:39;;;;;;;0.63;0.45;;;18.80;53.10;;;;;;6184809;23;20084;-72
2021/06/13 08:17:05;;;;;;;0.82;0.50;;;18.90;54.10;;;;;;6184777;23;20032;-72
2021/06/13 08:19:31;;;;;;;1.58;0.80;;;18.90;54.30;;;;;;6184677;23;20418;-72
2021/06/13 08:21:57;;;;;;;1.33;0.55;;;19.00;55.20;;;;;;6158322;23;20012;-72
2021/06/13 08:24:23;;;;;;;0.80;0.50;;;19.00;54.40;;;;;;6184930;23;20035;-72
2021/06/13 08:26:49;;;;;;;1.20;0.70;;;19.00;54.70;;;;;;6185101;23;20015;-72
2021/06/13 08:29:14;;;;;;;2.50;1.05;;;19.00;54.10;;;;;;6185050;23;20419;-72
2021/06/13 08:31:40;;;;;;;1.00;0.63;;;18.90;53.90;;;;;;6184398;23;20009;-72
2021/06/13 08:34:06;;;;;;;2.67;0.68;;;18.80;54.20;;;;;;6184665;23;20028;-72
2021/06/13 08:36:32;;;;;;;3.72;0.90;;;18.80;54.90;;;;;;6184682;23;20051;-72
2021/06/13 08:38:58;;;;;;;1.65;0.80;;;18.90;54.10;;;;;;6184728;23;20005;-72
2021/06/13 08:41:24;;;;;;;1.50;0.70;;;18.90;53.60;;;;;;6184305;23;20001;-72
2021/06/13 08:43:51;;;;;;;2.15;0.60;;;19.00;54.70;;;;;;6184610;23;20001;-72
2021/06/13 08:46:17;;;;;;;3.33;0.60;;;19.10;54.40;;;;;;6184379;23;20105;-72
2021/06/13 08:48:46;;;;;;;3.83;0.73;;;19.20;54.30;;;;;;6184765;23;20087;-72
2021/06/13 08:51:12;;;;;;;1.92;0.50;;;19.20;53.90;;;;;;6184652;23;20004;-72
2021/06/13 08:53:43;;;;;;;1.52;0.60;;;19.20;53.60;;;;;;6184554;23;20009;-72
2021/06/13 08:56:14;;;;;;;5.28;0.75;;;19.10;53.20;;;;;;6184599;23;20083;-72
2021/06/13 08:58:40;;;;;;;0.55;0.35;;;19.10;54.10;;;;;;6184237;23;20005;-72
2021/06/13 09:01:06;;;;;;;0.60;0.40;;;19.10;54.80;;;;;;6184531;23;20422;-72
2021/06/13 09:03:33;;;;;;;2.03;0.50;;;19.10;53.00;;;;;;6184171;23;20095;-72
2021/06/13 09:05:59;;;;;;;0.98;0.50;;;19.00;52.40;;;;;;6184306;23;20015;-72
2021/06/13 09:08:33;;;;;;;3.08;0.60;;;18.90;52.60;;;;;;6184560;23;20009;-72
2021/06/13 09:10:59;;;;;;;1.90;0.50;;;18.90;53.10;;;;;;6184448;23;20009;-72
2021/06/13 09:13:27;;;;;;;0.63;0.40;;;18.80;52.70;;;;;;6184165;23;20451;-72
2021/06/13 09:15:59;;;;;;;0.35;0.30;;;18.80;52.80;;;;;;6184649;23;20001;-72
2021/06/13 09:18:39;;;;;;;0.60;0.20;;;18.80;54.20;;;;;;6184376;23;20001;-72
2021/06/13 09:21:06;;;;;;;;;;;18.80;53.30;;;;;;6184871;23;20005;-72
2021/06/13 09:23:34;;;;;;;2.40;0.40;;;18.70;53.20;;;;;;6183585;23;19990;-72
2021/06/13 09:26:06;;;;;;;1.00;0.47;;;18.80;53.70;;;;;;6184556;23;20083;-72
2021/06/13 09:28:34;;;;;;;1.00;0.30;;;18.80;53.10;;;;;;6184159;23;20055;-72
2021/06/13 09:31:00;;;;;;;1.13;0.47;;;18.80;52.10;;;;;;6184339;23;20059;-72
2021/06/13 09:33:36;;;;;;;0.68;0.50;;;18.80;52.50;;;;;;6183946;23;20008;-72
2021/06/13 09:36:04;;;;;;;0.60;0.40;;;18.90;53.40;;;;;;6184283;23;20031;-72
2021/06/13 09:38:42;;;;;;;1.00;0.50;;;18.90;51.80;;;;;;6183979;23;20080;-72
2021/06/13 09:41:15;;;;;;;3.55;0.40;;;18.80;51.60;;;;;;6184315;23;20005;-72
2021/06/13 09:43:47;;;;;;;1.92;0.40;;;18.60;51.80;;;;;;6183999;23;20009;-72
2021/06/13 09:46:44;;;;;;;0.50;0.50;;;18.40;52.70;;;;;;6183991;23;20013;-72
2021/06/13 09:49:15;;;;;;;2.05;0.63;;;18.30;54.40;;;;;;6139208;23;20341;-72
2021/06/13 09:51:46;;;;;;;1.00;0.60;;;18.30;53.80;;;;;;6184087;23;20337;-72
2021/06/13 09:54:19;;;;;;;1.02;0.43;;;18.30;54.30;;;;;;6184104;23;20000;-72
2021/06/13 09:56:46;;;;;;;0.75;0.60;;;18.40;53.20;;;;;;6183839;23;20036;-72
2021/06/13 09:59:13;;;;;;;2.40;0.50;;;18.50;53.00;;;;;;6184196;23;20413;-72
2021/06/13 10:01:40;;;;;;;0.47;0.47;;;18.50;52.20;;;;;;6183980;23;20001;-72
2021/06/13 10:04:20;;;;;;;11.82;0.85;;;18.50;53.20;;;;;;6183924;23;20447;-72
2021/06/13 10:06:55;;;;;;;1.05;0.70;;;18.70;52.20;;;;;;6184248;23;20001;-72
2021/06/13 10:09:22;;;;;;;2.63;0.80;;;18.80;52.00;;;;;;6184073;23;20479;-72
2021/06/13 10:11:50;;;;;;;1.63;0.63;;;18.80;51.40;;;;;;6183924;23;20402;-72
2021/06/13 10:14:17;;;;;;;0.52;0.43;;;18.80;51.50;;;;;;6184342;23;20001;-72
2021/06/13 10:16:49;;;;;;;4.50;0.63;;;18.80;51.60;;;;;;6183958;23;20467;-72
2021/06/13 10:19:20;;;;;;;0.63;0.60;;;18.70;51.30;;;;;;6184280;23;19993;-72
2021/06/13 10:21:48;;;;;;;0.82;0.70;;;18.80;52.20;;;;;;6183831;23;20180;-72
2021/06/13 10:24:17;;;;;;;1.00;0.63;;;18.90;52.70;;;;;;6183903;23;20005;-72
2021/06/13 10:27:07;;;;;;;0.65;0.65;;;18.90;52.30;;;;;;6183954;23;19997;-72
2021/06/13 10:29:35;;;;;;;0.82;0.50;;;18.90;50.90;;;;;;6166610;23;20006;-72
2021/06/13 10:32:03;;;;;;;3.42;0.80;;;18.90;52.00;;;;;;6183838;23;20001;-72
2021/06/13 10:34:30;;;;;;;3.05;0.70;;;18.90;51.90;;;;;;6184634;23;20012;-72
2021/06/13 10:36:59;;;;;;;2.35;0.55;;;18.90;50.90;;;;;;6185572;23;20337;-72
2021/06/13 10:39:28;;;;;;;1.05;0.60;;;18.70;50.70;;;;;;6186151;23;20009;-72
2021/06/13 10:41:54;;;;;;;0.85;0.60;;;18.70;51.60;;;;;;6185995;23;20055;-72
2021/06/13 10:44:23;;;;;;;1.15;0.52;;;18.80;50.70;;;;;;6185558;23;20357;-72
2021/06/13 10:46:54;;;;;;;0.98;0.93;;;18.80;51.00;;;;;;6185382;23;20029;-72
2021/06/13 10:49:30;;;;;;;0.60;0.60;;;18.80;50.50;;;;;;6186042;23;20012;-72
2021/06/13 10:52:31;;;;;;;1.08;0.65;;;18.90;51.00;;;;;;6185622;23;20005;-72
2021/06/13 10:55:02;;;;;;;0.90;0.80;;;19.00;50.70;;;;;;6036874;23;20096;-72
2021/06/13 10:57:33;;;;;;;2.70;0.43;;;19.10;51.30;;;;;;6134571;23;20040;-72
2021/06/13 11:00:00;;;;;;;1.38;0.70;;;18.90;49.10;;;;;;6185688;23;20009;-72
2021/06/13 11:02:49;;;;;;;3.10;0.82;;;18.80;50.00;;;;;;6185310;23;20042;-72
2021/06/13 11:05:34;;;;;;;1.55;0.80;;;18.70;49.90;;;;;;6185651;23;20028;-72
2021/06/13 11:08:00;;;;;;;1.10;0.77;;;18.60;50.50;;;;;;6185868;23;20012;-72
2021/06/13 11:10:29;;;;;;;0.80;0.80;;;18.80;51.80;;;;;;6185780;23;20325;-72
2021/06/13 11:13:00;;;;;;;1.15;0.90;;;18.90;50.60;;;;;;6185325;23;20002;-72
2021/06/13 11:15:26;;;;;;;1.13;1.02;;;18.90;50.60;;;;;;6185371;23;20004;-72
2021/06/13 11:18:01;;;;;;;1.77;0.90;;;18.90;50.90;;;;;;6185233;23;20005;-72
2021/06/13 11:20:27;;;;;;;1.98;1.08;;;18.90;51.00;;;;;;6185554;23;20052;-72
2021/06/13 11:22:53;;;;;;;1.40;0.90;;;19.00;49.90;;;;;;6184992;23;20060;-72
2021/06/13 11:25:21;;;;;;;1.10;0.80;;;18.80;48.80;;;;;;6185301;23;20132;-72
2021/06/13 11:28:12;;;;;;;2.45;1.10;;;18.70;49.90;;;;;;6185167;23;20004;-72
2021/06/13 11:30:52;;;;;;;1.50;1.00;;;18.80;51.60;;;;;;6185330;23;20009;-72
2021/06/13 11:33:38;;;;;;;2.88;1.00;;;19.00;53.00;;;;;;6185231;23;20012;-72
2021/06/13 11:36:05;;;;;;;3.30;1.00;;;19.20;50.40;;;;;;6185338;23;20001;-72
2021/06/13 11:38:33;;;;;;;2.20;1.00;;;19.10;50.80;;;;;;6184862;23;20467;-72
2021/06/13 11:41:04;;;;;;;1.40;1.13;;;19.20;50.10;;;;;;6185689;23;20005;-72
2021/06/13 11:43:45;;;;;;;1.90;1.02;;;19.10;49.80;;;;;;6185001;23;20040;-72
2021/06/13 11:46:12;;;;;;;0.95;0.85;;;19.10;50.90;;;;;;6184480;23;20441;-72
2021/06/13 11:48:50;;;;;;;1.00;0.90;;;19.20;50.80;;;;;;6185162;23;20013;-72
2021/06/13 11:51:19;;;;;;;1.83;1.02;;;19.20;50.30;;;;;;6185280;23;20001;-72
2021/06/13 11:53:48;;;;;;;2.95;1.10;;;19.30;50.30;;;;;;6185065;23;20437;-72
2021/06/13 11:56:32;;;;;;;1.27;1.00;;;19.40;50.50;;;;;;6185411;23;20001;-72
2021/06/13 11:59:09;;;;;;;1.50;0.82;;;19.30;50.40;;;;;;6184950;23;20001;-72
2021/06/13 12:01:37;;;;;;;2.65;0.85;;;19.30;49.30;;;;;;6185116;23;20005;-72
2021/06/13 12:04:07;;;;;;;3.67;0.88;;;19.20;48.90;;;;;;6184929;23;20080;-72
2021/06/13 12:06:35;;;;;;;3.90;0.88;;;19.20;49.30;;;;;;6184918;23;20005;-72
2021/06/13 12:09:08;;;;;;;0.70;0.70;;;19.10;49.20;;;;;;6184721;23;20096;-72
2021/06/13 12:11:39;;;;;;;1.90;1.08;;;18.90;49.10;;;;;;6184877;23;20267;-72
2021/06/13 12:14:40;;;;;;;1.08;0.88;;;18.80;49.30;;;;;;6184930;23;20003;-72
2021/06/13 12:17:23;;;;;;;1.30;0.80;;;18.70;49.10;;;;;;6184744;23;20509;-72
2021/06/13 12:20:01;;;;;;;0.90;0.70;;;18.60;50.30;;;;;;6184789;23;20020;-72
2021/06/13 12:27:44;;;;;;;1.10;0.90;;;18.70;49.90;;;;;;6184466;23;20084;-72
2021/06/13 12:30:14;;;;;;;2.42;0.80;;;18.60;49.40;;;;;;6184694;23;20461;-72
2021/06/13 12:32:42;;;;;;;2.13;0.88;;;18.60;50.00;;;;;;6184804;23;20012;-72
2021/06/13 12:35:09;;;;;;;4.50;1.15;;;18.70;50.20;;;;;;6184674;23;20083;-72
2021/06/13 12:37:35;;;;;;;5.10;0.73;;;18.80;50.30;;;;;;6184444;23;20060;-72
2021/06/13 12:40:10;;;;;;;1.30;0.70;;;18.90;50.80;;;;;;6184747;23;20001;-72
2021/06/13 12:42:39;;;;;;;3.55;0.90;;;18.90;50.20;;;;;;6184258;23;20580;-72
2021/06/13 12:45:13;;;;;;;3.30;0.57;;;18.90;51.40;;;;;;6184235;23;20005;-81
2021/06/13 12:47:41;;;;;;;1.35;0.85;;;19.10;54.60;;;;;;6184323;23;20032;-77
2021/06/13 12:50:11;;;;;;;0.93;0.55;;;19.50;55.30;;;;;;6184692;23;20005;-78
2021/06/13 12:52:46;;;;;;;8.77;1.10;;;19.90;55.30;;;;;;6184319;23;20072;-72
2021/06/13 12:55:12;;;;;;;4.65;1.02;;;20.00;51.70;;;;;;6184583;23;20287;-71
2021/06/13 12:57:40;;;;;;;2.97;0.82;;;19.80;49.80;;;;;;6184322;23;20011;-71
2021/06/13 13:00:09;;;;;;;2.70;0.90;;;19.70;50.30;;;;;;6184546;23;20001;-72
2021/06/13 13:02:35;;;;;;;2.83;0.98;;;19.50;50.00;;;;;;6184225;23;20009;-73
2021/06/13 13:05:00;;;;;;;1.05;1.02;;;19.40;50.20;;;;;;6184620;23;20001;-70
2021/06/13 13:07:33;;;;;;;2.33;1.15;;;19.20;48.50;;;;;;6184354;23;20468;-70
2021/06/13 13:10:20;;;;;;;1.50;1.40;;;19.00;48.70;;;;;;6184191;23;20001;-70
2021/06/13 13:12:54;;;;;;;1.50;1.25;;;18.80;48.30;;;;;;6184268;23;20005;-72
2021/06/13 13:15:25;;;;;;;5.28;1.40;;;18.80;48.80;;;;;;6184177;23;20433;-72
2021/06/13 13:17:56;;;;;;;3.28;1.30;;;18.70;49.10;;;;;;6184241;23;20040;-73
2021/06/13 13:20:31;;;;;;;4.30;1.40;;;18.60;49.40;;;;;;6184210;23;20349;-72
2021/06/13 13:23:11;;;;;;;1.48;1.38;;;18.60;50.50;;;;;;6183969;23;20020;-72
2021/06/13 13:25:40;;;;;;;1.50;1.40;;;18.60;50.50;;;;;;6184502;23;20007;-72
2021/06/13 13:28:26;;;;;;;2.75;2.05;;;18.60;50.80;;;;;;6184440;23;20039;-72
2021/06/13 13:31:08;;;;;;;4.43;1.85;;;18.70;49.20;;;;;;6184381;23;20441;-71
2021/06/13 13:33:37;;;;;;;1.67;1.58;;;18.80;49.40;;;;;;6184399;23;20557;-72
2021/06/13 13:36:06;;;;;;;1.67;1.58;;;18.80;48.60;;;;;;6184458;23;20005;-71
2021/06/13 13:38:46;;;;;;;3.38;2.05;;;18.80;48.00;;;;;;6184502;23;20028;-74
2021/06/13 13:41:15;;;;;;;2.30;1.90;;;18.80;48.40;;;;;;6184251;23;20437;-72